• Join FlightAware (Why Join?)
  • Login
  • US Flag 
09:33PM EDT


 

Airport Tracker/Info


-or-


 

Live Flight TrackerFlight Track Log ✈ NKS142 ✈ 28-Jun-2013 ✈ MDSD / SDQ - KFLL

Flight Track Log - Related Links

Times and Time Zones

All times are in EDT time to prevent confusion due to time zone crossing. See the NKS142 flight status page for this flight to view local times or setup timezone preferences in your user account.

Time Position Orientation Groundspeed Altitude Reporting Facility
EDT Latitude Longitude Course Direction KTS MPH feet Rate Location/Type
05:26PM 18.3970 -69.8360 281° West 294 338 9,300  Level FlightAware
05:27PM 18.4090 -69.8950 282° West 304 350 11,600 3,420 Climbing FlightAware
05:27PM 18.4190 -69.9550 280° West 305 351 14,000 1,800 Climbing FlightAware
05:28PM 18.4290 -70.0150 280° West 307 353 14,300 2,100 Climbing FlightAware
05:29PM 18.4420 -70.0560 288° West 328 377 16,400 4,320 Climbing FlightAware
05:29PM 18.4600 -70.0710 322° Northwest 330 380 17,000 1,860 Climbing FlightAware
05:30PM 18.5130 -70.0980 334° Northwest 354 407 18,100 960 Climbing FlightAware
05:30PM 18.5470 -70.1170 332° Northwest 354 407 18,100  Level FlightAware
05:31PM 18.6070 -70.1490 333° Northwest 354 407 18,100  Level FlightAware
05:31PM 18.6520 -70.1730 333° Northwest 354 407 18,100  Level FlightAware
05:32PM 18.7110 -70.2050 333° Northwest 354 407 18,100  Level FlightAware
05:33PM 18.7570 -70.2300 333° Northwest 354 407 18,100 2,400 Level FlightAware
05:36PM 18.9275 -70.4420 310° West  Level Estimated
05:37PM 18.9905 -70.5207 310° West  Level Estimated
05:38PM 19.0536 -70.5994 310° West  Level Estimated
05:38PM 19.4750 -70.3050 310° West 434 499 33,200  Level FlightAware
05:39PM 19.1166 -70.6781 310° West  Level Estimated
05:39PM 19.5700 -70.2870 10° North 430 495 34,300  Level FlightAware
05:40PM 19.6330 -70.2980 351° North 414 476 35,300 1,200 Climbing FlightAware
05:40PM 19.6900 -70.3380 327° Northwest 411 473 35,700 420 Climbing FlightAware
05:42PM 19.7750 -70.4310 314° West 411 473 36,100 180 Climbing FlightAware
05:42PM 19.8150 -70.4750 314° West 411 473 36,100  Level FlightAware
05:43PM 19.8830 -70.5500 314° West 411 473 36,100  Level FlightAware
05:44PM 19.9230 -70.5940 314° West 411 473 36,100  Level FlightAware
05:45PM 19.9770 -70.6530 314° West 411 473 36,100  Level FlightAware
05:45PM 20.0150 -70.6950 314° West 411 473 36,100  Level FlightAware
05:46PM 20.0690 -70.7550 314° West 411 473 36,100  Level FlightAware
05:47PM 20.1120 -70.8030 314° West 411 473 36,100  Level FlightAware
05:47PM 20.1660 -70.8620 314° West 411 473 36,100  Level FlightAware
05:48PM 20.2070 -70.9070 314° West 411 473 36,100  Level FlightAware
05:49PM 20.2610 -70.9660 314° West 411 473 36,100  Level FlightAware
05:49PM 20.3010 -71.0110 313° West 411 473 36,100  Level FlightAware
05:50PM 20.3710 -71.0880 314° West 411 473 36,100 1,080 Level FlightAware
05:51PM 20.5414 -71.2822 314° West 419 482 38,000 1,080 Climbing Miami Center
05:52PM 20.6136 -71.3767 309° West 419 482 38,000  Level Miami Center
05:53PM 20.6900 -71.4756 310° West 424 488 38,000  Level Miami Center
05:54PM 20.7642 -71.5744 309° West 430 495 38,000  Level Miami Center
05:55PM 20.8383 -71.6714 309° West 430 495 38,000  Level Miami Center
05:56PM 20.9147 -71.7683 310° West 430 495 38,000  Level Miami Center
05:57PM 20.9908 -71.8656 310° West 430 495 38,000  Level Miami Center
05:58PM 21.0669 -71.9650 309° West 430 495 38,000  Level Miami Center
05:59PM 21.1411 -72.0622 309° West 430 495 38,000  Level Miami Center
06:00PM 21.2128 -72.1578 309° West 430 495 38,000  Level Miami Center
06:01PM 21.2889 -72.2575 309° West 430 495 38,000  Level Miami Center
06:02PM 21.3647 -72.3550 310° West 430 495 38,000  Level Miami Center
06:03PM 21.4386 -72.4550 308° West 430 495 38,000  Level Miami Center
06:04PM 21.5144 -72.5508 310° West 430 495 38,000  Level Miami Center
06:05PM 21.5881 -72.6489 309° West 430 495 38,000  Level Miami Center
06:06PM 21.6639 -72.7492 309° West 430 495 38,000  Level Miami Center
06:07PM 21.7375 -72.8472 309° West 430 495 38,000  Level Miami Center
06:08PM 21.8108 -72.9458 309° West 430 495 38,000  Level Miami Center
06:09PM 21.8864 -73.0442 310° West 430 495 38,000  Level Miami Center
06:10PM 21.9533 -73.1294 310° West 430 495 38,000  Level Miami Center
06:11PM 22.0267 -73.2283 309° West 430 495 38,000  Level Miami Center
06:12PM 22.1019 -73.3269 309° West 430 495 38,000  Level Miami Center
06:13PM 22.1711 -73.4283 306° West 430 495 38,000  Level Miami Center
06:14PM 22.2672 -73.5200 319° Northwest 424 488 38,000  Level Miami Center
06:15PM 22.3506 -73.6075 316° Northwest 418 481 38,000  Level Miami Center
06:16PM 22.4400 -73.6953 318° Northwest 418 481 38,000  Level Miami Center
06:17PM 22.5253 -73.7808 317° Northwest 418 481 38,000  Level Miami Center
06:18PM 22.6128 -73.8664 318° Northwest 423 487 38,000  Level Miami Center
06:19PM 22.7022 -73.9500 319° Northwest 423 487 38,000  Level Miami Center
06:20PM 22.7894 -74.0336 319° Northwest 423 487 38,000  Level Miami Center
06:21PM 22.8786 -74.1194 318° Northwest 418 481 38,000  Level Miami Center
06:22PM 22.9578 -74.2150 312° West 418 481 38,000  Level Miami Center
06:23PM 23.0264 -74.3172 306° West 418 481 38,000  Level Miami Center
06:24PM 23.0989 -74.4197 308° West 424 488 38,000  Level Miami Center
06:25PM 23.1675 -74.5247 305° West 424 488 38,000  Level Miami Center
06:26PM 23.2400 -74.6272 308° West 424 488 38,000  Level Miami Center
06:27PM 23.3106 -74.7300 307° West 424 488 38,000  Level Miami Center
06:28PM 23.3811 -74.8353 306° West 424 488 38,000  Level Miami Center
06:29PM 23.4514 -74.9383 307° West 424 488 38,000 -60 Level Miami Center
06:30PM 23.5217 -75.0439 306° West 429 494 37,900 -600 Descending Miami Center
06:31PM 23.5917 -75.1469 307° West 429 494 36,900 -960 Descending Miami Center
06:32PM 23.6639 -75.2528 307° West 429 494 36,000 -960 Descending Miami Center
06:33PM 23.7342 -75.3586 306° West 429 494 35,000 -1,020 Descending Miami Center
06:34PM 23.8083 -75.4689 306° West 440 506 34,000 -540 Descending Miami Center
06:35PM 23.8781 -75.5750 306° West 440 506 34,000  Level Miami Center
06:36PM 23.9500 -75.6833 306° West 440 506 34,000  Level Miami Center
06:37PM 24.0219 -75.7919 306° West 440 506 34,000  Level Miami Center
06:38PM 24.0917 -75.8983 306° West 445 512 34,000  Level Miami Center
06:39PM 24.1614 -76.0069 305° West 445 512 34,000  Level Miami Center
06:40PM 24.2331 -76.1158 306° West 445 512 34,000  Level Miami Center
06:41PM 24.3044 -76.2250 306° West 445 512 34,000  Level Miami Center
06:42PM 24.3761 -76.3342 306° West 445 512 34,000  Level Miami Center
06:43PM 24.4433 -76.4389 305° West 440 506 34,000  Level Miami Center
06:44PM 24.5167 -76.5458 307° West 440 506 34,000  Level Miami Center
06:45PM 24.5878 -76.6531 306° West 440 506 34,000  Level Miami Center
06:46PM 24.6550 -76.7606 305° West 440 506 34,000  Level Miami Center
06:47PM 24.7281 -76.8703 306° West 440 506 34,000  Level Miami Center
06:48PM 24.7992 -76.9778 306° West 440 506 34,000  Level Miami Center
06:49PM 24.8681 -77.0856 305° West 440 506 34,000  Level Miami Center
06:50PM 24.9389 -77.1958 305° West 440 506 34,000  Level Miami Center
06:56PM 25.3030 -77.8510 305° West 432 497 34,000 -120 Level FlightAware
06:56PM 25.3290 -77.9350 289° West 427 491 33,500 -900 Descending FlightAware
06:58PM 25.3780 -78.0890 289° West 431 496 32,300 -1,020 Descending FlightAware
06:58PM 25.4030 -78.1710 289° West 434 499 31,600 -1,020 Descending FlightAware
06:59PM 25.4340 -78.2710 289° West 431 496 30,900 -1,500 Descending FlightAware
07:00PM 25.4860 -78.4370 289° West 437 503 28,500 -2,400 Descending FlightAware
07:02PM 25.5600 -78.6770 289° West 419 482 23,300 -2,700 Descending FlightAware
07:04PM 25.6120 -78.8460 289° West 401 461 19,600 -2,580 Descending FlightAware
07:04PM 25.6340 -78.9170 289° West 393 452 18,000 -2,520 Descending FlightAware
07:05PM 25.6610 -79.0070 288° West 384 442 16,100 -2,580 Descending FlightAware
07:06PM 25.6870 -79.0910 289° West 376 433 14,200 -2,520 Descending FlightAware
07:07PM 25.7060 -79.1540 289° West 371 427 12,800 -2,340 Descending FlightAware
07:07PM 25.7300 -79.2330 289° West 360 414 11,100 -1,560 Descending FlightAware
07:08PM 25.7530 -79.3080 289° West 324 373 10,500 -780 Descending FlightAware
07:09PM 25.7710 -79.3690 288° West 297 342 10,000 -960 Descending FlightAware
07:09PM 25.7840 -79.4120 289° West 294 338 9,400 -1,380 Descending FlightAware
07:10PM 25.7930 -79.4410 289° West 290 334 8,900 -1,320 Descending FlightAware
07:11PM 25.8350 -79.5810 288° West 277 319 6,800 -1,320 Descending FlightAware
07:12PM 25.8480 -79.6240 289° West 277 319 6,100 -960 Descending FlightAware
07:12PM 25.8630 -79.6610 294° West 275 316 5,900 -300 Descending FlightAware
07:12PM 25.8700 -79.6750 299° West 277 319 5,900 -900 Level FlightAware
07:13PM 25.8860 -79.7150 294° West 272 313 5,300 -1,080 Descending FlightAware
07:13PM 25.8950 -79.7330 299° West 273 314 5,100 -600 Descending FlightAware
07:14PM 25.9160 -79.7850 294° West 273 314 4,800 -780 Descending FlightAware
07:14PM 25.9240 -79.8030 296° West 272 313 4,400 -1,080 Descending FlightAware
07:14PM 25.9370 -79.8340 295° West 274 315 4,100 -480 Descending FlightAware
07:15PM 25.9540 -79.8730 296° West 273 314 4,000 -120 Descending FlightAware
07:15PM 25.9700 -79.9120 295° West 274 315 4,000  Level FlightAware
07:16PM 25.9780 -79.9300 296° West 273 314 4,000  Level FlightAware
07:16PM 25.9880 -79.9710 285° West 270 311 4,000 -120 Level FlightAware
07:17PM 25.9890 -80.0060 272° West 268 308 3,900 -480 Descending FlightAware
07:17PM 25.9890 -80.0250 270° West 262 302 3,700 -720 Descending FlightAware
07:17PM 25.9900 -80.0640 272° West 244 281 3,400 -600 Descending FlightAware
07:18PM 25.9900 -80.0760 270° West 238 274 3,300 -540 Descending FlightAware
07:18PM 25.9910 -80.1060 272° West 224 258 3,100 -360 Descending FlightAware
07:18PM 25.9920 -80.1390 272° West 207 238 3,000 -180 Descending FlightAware
07:19PM 25.9920 -80.1550 270° West 205 236 3,000  Level FlightAware
07:19PM 25.9930 -80.1820 272° West 203 234 3,000  Level FlightAware
07:19PM 25.9930 -80.2010 270° West 200 230 3,000  Level FlightAware
07:20PM 25.9940 -80.2280 272° West 201 231 3,000  Level FlightAware
07:20PM 25.9940 -80.2430 270° West 200 230 3,000  Level FlightAware
07:21PM 25.9950 -80.2680 273° West 199 229 3,000  Level FlightAware
07:21PM 25.9960 -80.2990 272° West 204 235 3,000  Level FlightAware
07:22PM 25.9960 -80.3320 270° West 202 232 3,000  Level FlightAware
07:22PM 25.9970 -80.3540 273° West 184 212 3,000  Level FlightAware
07:22PM 25.9970 -80.3840 270° West 177 204 3,000  Level FlightAware
07:23PM 25.9980 -80.4100 272° West 178 205 3,000  Level FlightAware
07:23PM 25.9980 -80.4320 270° West 176 203 3,000  Level FlightAware
07:24PM 25.9990 -80.4470 274° West 177 204 3,000  Level FlightAware
07:24PM 25.9990 -80.4700 270° West 177 204 3,000  Level FlightAware
07:24PM 26.0050 -80.4810 301° West 178 205 3,000  Level FlightAware
07:25PM 26.0140 -80.4860 333° Northwest 188 216 3,000 -360 Level FlightAware
07:25PM 26.0460 -80.4720 21° North 187 215 2,700 -480 Descending FlightAware
07:26PM 26.0620 -80.4480 53° Northeast 191 220 2,500 -300 Descending FlightAware
07:26PM 26.0700 -80.4350 56° Northeast 192 221 2,500  Level FlightAware
07:26PM 26.0760 -80.4220 63° Northeast 190 219 2,500  Level FlightAware
07:26PM 26.0770 -80.4120 84° East 190 219 2,500  Level FlightAware
07:27PM 26.0780 -80.3840 88° East 188 216 2,500  Level FlightAware
07:27PM 26.0780 -80.3600 90° East 187 215 2,500  Level FlightAware
07:28PM 26.0780 -80.3450 90° East 186 214 2,500 -240 Level FlightAware
07:28PM 26.0780 -80.3020 90° East 187 215 2,300 -540 Descending FlightAware
07:29PM 26.0780 -80.2870 90° East 186 214 2,000 -900 Descending FlightAware
07:29PM 26.0780 -80.2660 90° East 176 203 1,700 -780 Descending FlightAware
07:29PM 26.0770 -80.2390 92° East 151 174 1,300 -840 Descending FlightAware
07:30PM 26.0770 -80.2180 90° East 130 150 900 -720 Descending FlightAware
07:30PM 26.0770 -80.2070 90° East 125 144 700 -660 Descending FlightAware
07:31PM 26.0770 -80.1870 90° East 127 146 400 -660 Descending FlightAware
07:31PM 26.0770 -80.1740 90° East 126 145 200 -600 Descending FlightAware